Wan Hai 510 — 9VJJ8 — position and weather

sailwx.info

Track history (hours):
 
Tides and Currents Weather Stations Pressure Air Temp Water Temp Dewpoint Dewpoint Depression Visibility Wind Speed Wind Dir Waves Ship Positions

Wan Hai 510

Last reported at 2016-Dec-11 11:33 UTC. Time now 2016-Dec-11 12:00 UTC.
Position N 01°14' E 103°54'.

Length 269 m; draft 10.9 m.

Type: Ship. MMSI: 565706755.

Date/timePositionNaut miles runAvg speedWind from/ knotsBaromVisibWave heightAir tempDewpointWater temp
2016-Dec-11 11:33N 01°14' E 103°54'  
2016-Dec-07 23:33N 22°24' E 113°53'3 2.9
2016-Dec-07 22:29N 22°28' E 113°54'0 0.0
2016-Dec-07 21:29N 22°28' E 113°54'0 0.0
2016-Dec-07 20:11N 22°28' E 113°54'0 0.0
2016-Dec-07 19:23N 22°28' E 113°54'0 0.0
2016-Dec-07 18:29N 22°28' E 113°54'0 0.0
2016-Dec-07 17:29N 22°28' E 113°54'0 0.0
2016-Dec-07 16:29N 22°28' E 113°54'0 0.0
2016-Dec-07 15:23N 22°28' E 113°54'0 0.0
2016-Dec-07 14:29N 22°28' E 113°54'0 0.0
2016-Dec-07 11:05N 22°28' E 113°54'0 0.0
2016-Dec-07 10:23N 22°28' E 113°54'0 0.0
2016-Dec-07 09:23N 22°28' E 113°54'0 0.0
2016-Dec-07 08:29N 22°28' E 113°54'2 2.7
2016-Dec-07 07:33N 22°25' E 113°53'12 8.9
2016-Dec-07 06:11N 22°20' E 114°05'2 0.2
2016-Dec-06 17:17N 22°20' E 114°07'32012.3
2016-Dec-05 15:22N 22°33' E 119°53'1214.5
2016-Dec-05 14:33N 22°33' E 120°06'1212.2
2016-Dec-05 13:33N 22°33' E 120°19'2 1.4
2016-Dec-05 12:29N 22°35' E 120°18'0 0.1
2016-Dec-05 11:23N 22°35' E 120°18'0 0.1
2016-Dec-05 10:29N 22°35' E 120°18'0 0.0
2016-Dec-05 09:29N 22°35' E 120°18'0 0.0
2016-Dec-05 07:11N 22°35' E 120°18'0 0.1
2016-Dec-05 06:29N 22°35' E 120°18'0 0.1
2016-Dec-05 05:23N 22°35' E 120°18'0 0.0
2016-Dec-05 04:05N 22°35' E 120°18'0 0.0
2016-Dec-05 03:29N 22°35' E 120°18'0 0.1
2016-Dec-05 02:29N 22°35' E 120°18'0 0.0
2016-Dec-05 01:29N 22°35' E 120°18'0 0.0
2016-Dec-04 18:32N 22°35' E 120°18'0 0.0
2016-Dec-04 17:32N 22°35' E 120°18'0 0.1
2016-Dec-04 16:32N 22°35' E 120°18'0 0.0
2016-Dec-04 15:32N 22°35' E 120°18'0 0.0
2016-Dec-04 13:26N 22°35' E 120°18'0 0.0
2016-Dec-04 12:32N 22°35' E 120°18'0 0.0
2016-Dec-04 11:26N 22°35' E 120°18'0 0.0
2016-Dec-04 10:32N 22°35' E 120°18'0 0.0
2016-Dec-04 09:26N 22°35' E 120°18'0 0.0
2016-Dec-04 07:26N 22°35' E 120°18'2 2.8
2016-Dec-04 06:33N 22°33' E 120°17'5 5.4
2016-Dec-04 05:33N 22°29' E 120°13'6 5.7
2016-Dec-04 04:32N 22°24' E 120°10'1 1.2
2016-Dec-04 03:32N 22°24' E 120°09'3 2.7
2016-Dec-04 02:33N 22°22' E 120°09'1717.1
2016-Dec-04 01:33N 22°05' E 120°04'2720.0
2016-Dec-04 00:12N 21°41' E 119°51'  
Track history (hours):
 
Tides and Currents Weather Stations Pressure Air Temp Water Temp Dewpoint Dewpoint Depression Visibility Wind Speed Wind Dir Waves Ship Positions

Wan Hai 510

Last reported at 2016-Dec-11 11:33 UTC. Time now 2016-Dec-11 12:00 UTC.
Position N 01°14' E 103°54'.

Length 269 m; draft 10.9 m.

Type: Ship. MMSI: 565706755.

Date/timePositionNaut miles runAvg speedWind from/ knotsBaromVisibWave heightAir tempDewpointWater temp
2016-Dec-11 11:33N 01°14' E 103°54'  
2016-Dec-07 23:33N 22°24' E 113°53'3 2.9
2016-Dec-07 22:29N 22°28' E 113°54'0 0.0
2016-Dec-07 21:29N 22°28' E 113°54'0 0.0
2016-Dec-07 20:11N 22°28' E 113°54'0 0.0
2016-Dec-07 19:23N 22°28' E 113°54'0 0.0
2016-Dec-07 18:29N 22°28' E 113°54'0 0.0
2016-Dec-07 17:29N 22°28' E 113°54'0 0.0
2016-Dec-07 16:29N 22°28' E 113°54'0 0.0
2016-Dec-07 15:23N 22°28' E 113°54'0 0.0
2016-Dec-07 14:29N 22°28' E 113°54'0 0.0
2016-Dec-07 11:05N 22°28' E 113°54'0 0.0
2016-Dec-07 10:23N 22°28' E 113°54'0 0.0
2016-Dec-07 09:23N 22°28' E 113°54'0 0.0
2016-Dec-07 08:29N 22°28' E 113°54'2 2.7
2016-Dec-07 07:33N 22°25' E 113°53'12 8.9
2016-Dec-07 06:11N 22°20' E 114°05'2 0.2
2016-Dec-06 17:17N 22°20' E 114°07'32012.3
2016-Dec-05 15:22N 22°33' E 119°53'1214.5
2016-Dec-05 14:33N 22°33' E 120°06'1212.2
2016-Dec-05 13:33N 22°33' E 120°19'2 1.4
2016-Dec-05 12:29N 22°35' E 120°18'0 0.1
2016-Dec-05 11:23N 22°35' E 120°18'0 0.1
2016-Dec-05 10:29N 22°35' E 120°18'0 0.0
2016-Dec-05 09:29N 22°35' E 120°18'0 0.0
2016-Dec-05 07:11N 22°35' E 120°18'0 0.1
2016-Dec-05 06:29N 22°35' E 120°18'0 0.1
2016-Dec-05 05:23N 22°35' E 120°18'0 0.0
2016-Dec-05 04:05N 22°35' E 120°18'0 0.0
2016-Dec-05 03:29N 22°35' E 120°18'0 0.1
2016-Dec-05 02:29N 22°35' E 120°18'0 0.0
2016-Dec-05 01:29N 22°35' E 120°18'0 0.0
2016-Dec-04 18:32N 22°35' E 120°18'0 0.0
2016-Dec-04 17:32N 22°35' E 120°18'0 0.1
2016-Dec-04 16:32N 22°35' E 120°18'0 0.0
2016-Dec-04 15:32N 22°35' E 120°18'0 0.0
2016-Dec-04 13:26N 22°35' E 120°18'0 0.0
2016-Dec-04 12:32N 22°35' E 120°18'0 0.0
2016-Dec-04 11:26N 22°35' E 120°18'0 0.0
2016-Dec-04 10:32N 22°35' E 120°18'0 0.0
2016-Dec-04 09:26N 22°35' E 120°18'0 0.0
2016-Dec-04 07:26N 22°35' E 120°18'2 2.8
2016-Dec-04 06:33N 22°33' E 120°17'5 5.4
2016-Dec-04 05:33N 22°29' E 120°13'6 5.7
2016-Dec-04 04:32N 22°24' E 120°10'1 1.2
2016-Dec-04 03:32N 22°24' E 120°09'3 2.7
2016-Dec-04 02:33N 22°22' E 120°09'1717.1
2016-Dec-04 01:33N 22°05' E 120°04'2720.0
2016-Dec-04 00:12N 21°41' E 119°51'  

Dump ship's entire track history